createdAt,value
2023-02-13T00:01:10.118Z,86.39
2023-02-13T00:03:38.285Z,86.25
2023-02-13T00:06:06.596Z,85.25
2023-02-13T00:08:34.634Z,86.96
2023-02-13T00:11:02.676Z,87.61
2023-02-13T00:13:30.725Z,85.75
2023-02-13T00:16:01.763Z,87.37
2023-02-13T00:18:31.664Z,86.85
2023-02-13T00:21:01.441Z,87.19
2023-02-13T00:23:31.477Z,85.32
2023-02-13T00:25:59.539Z,86.64
2023-02-13T00:28:28.064Z,86.91
2023-02-13T00:30:56.700Z,88.13
2023-02-13T00:33:26.248Z,86.47
2023-02-13T00:36:03.917Z,87.75
2023-02-13T00:38:32.036Z,88.34
2023-02-13T00:41:00.114Z,87.16
2023-02-13T00:43:28.162Z,85.85
2023-02-13T00:45:58.842Z,86.61
2023-02-13T00:48:30.444Z,89.06
2023-02-13T00:50:59.084Z,88.30
2023-02-13T00:53:28.104Z,88.71
2023-02-13T00:55:56.280Z,86.09
2023-02-13T00:58:24.659Z,88.69
2023-02-13T01:00:53.377Z,89.63
2023-02-13T01:03:22.771Z,89.17
2023-02-13T01:05:58.024Z,89.12
2023-02-13T01:08:28.490Z,89.38
2023-02-13T01:10:57.541Z,90.46
2023-02-13T01:13:26.749Z,89.92
2023-02-13T01:15:55.280Z,90.03
2023-02-13T01:18:23.397Z,89.92
2023-02-13T01:21:00.534Z,90.81
2023-02-13T01:23:32.162Z,89.51
2023-02-13T01:26:00.745Z,89.07
2023-02-13T01:28:29.124Z,88.26
2023-02-13T01:30:59.025Z,86.63
2023-02-13T01:33:29.426Z,88.41
2023-02-13T01:36:00.499Z,88.62
2023-02-13T01:38:29.267Z,90.96
2023-02-13T01:40:57.508Z,90.37
2023-02-13T01:43:26.251Z,90.39
2023-02-13T01:45:57.791Z,88.66
2023-02-13T01:48:29.039Z,89.40
2023-02-13T01:51:02.608Z,91.19
2023-02-13T01:53:33.513Z,91.78
2023-02-13T01:56:04.445Z,91.48
2023-02-13T01:58:36.985Z,89.96
2023-02-13T02:01:07.484Z,88.39
2023-02-13T02:03:42.394Z,89.35
2023-02-13T02:06:21.895Z,89.37
2023-02-13T02:08:51.477Z,92.15
2023-02-13T02:11:28.174Z,91.93
2023-02-13T02:13:57.326Z,91.86
2023-02-13T02:16:34.231Z,91.84
2023-02-13T02:19:10.755Z,91.52
2023-02-13T02:22:10.131Z,91.18
2023-02-13T02:25:15.459Z,91.07
2023-02-13T02:28:26.189Z,92.46
2023-02-13T02:31:30.935Z,92.47
2023-02-13T02:34:14.153Z,92.03
2023-02-13T02:37:02.939Z,92.54
2023-02-13T02:39:45.251Z,91.46
2023-02-13T02:42:23.378Z,91.18
2023-02-13T02:44:59.208Z,91.39
2023-02-13T02:47:51.994Z,93.54
2023-02-13T02:50:34.180Z,92.01
2023-02-13T02:53:15.485Z,92.89
2023-02-13T02:55:49.579Z,92.10
2023-02-13T02:58:40.636Z,92.04
2023-02-13T03:01:30.714Z,92.30
2023-02-13T03:04:18.711Z,92.43
2023-02-13T03:06:53.179Z,93.84
2023-02-13T03:09:44.235Z,93.56
2023-02-13T03:12:34.051Z,93.03
2023-02-13T03:15:02.146Z,92.36
2023-02-13T03:17:47.687Z,90.72
2023-02-13T03:20:52.505Z,91.93
2023-02-13T03:23:31.597Z,92.10
2023-02-13T03:26:13.777Z,90.74
2023-02-13T03:29:09.605Z,91.42
2023-02-13T03:31:45.837Z,91.80
2023-02-13T03:34:18.291Z,91.62
2023-02-13T03:37:07.598Z,90.54
2023-02-13T03:39:49.059Z,89.88
2023-02-13T03:42:24.744Z,90.63
2023-02-13T03:45:12.001Z,90.63
2023-02-13T03:47:41.063Z,90.91
2023-02-13T03:50:09.643Z,92.36
2023-02-13T03:52:42.427Z,93.09
2023-02-13T03:55:33.340Z,92.78
2023-02-13T03:58:24.011Z,92.82
2023-02-13T04:00:55.341Z,93.27
2023-02-13T04:03:28.076Z,93.13
2023-02-13T04:06:02.822Z,93.39
2023-02-13T04:08:31.006Z,94.50
2023-02-13T04:11:08.658Z,95.57
2023-02-13T04:13:44.533Z,98.58
2023-02-13T04:16:17.669Z,98.56
2023-02-13T04:18:46.529Z,98.39
2023-02-13T04:21:14.562Z,99.83
2023-02-13T04:23:42.638Z,100.00
2023-02-13T04:26:18.215Z,100.00
2023-02-13T04:28:46.550Z,100.00
2023-02-13T04:31:14.818Z,100.00
2023-02-13T04:33:42.901Z,100.00
2023-02-13T04:36:11.250Z,100.00
2023-02-13T04:38:39.338Z,100.00
2023-02-13T04:41:07.401Z,100.00
2023-02-13T04:43:37.435Z,100.00
2023-02-13T04:46:06.065Z,100.00
2023-02-13T04:48:34.231Z,100.00
2023-02-13T04:51:02.258Z,100.00
2023-02-13T04:53:30.488Z,100.00
2023-02-13T04:55:58.538Z,100.00
2023-02-13T04:58:26.672Z,100.00
2023-02-13T05:00:56.410Z,100.00
2023-02-13T05:03:24.685Z,100.00
2023-02-13T05:05:52.718Z,100.00
2023-02-13T05:08:21.180Z,100.00
2023-02-13T05:10:49.752Z,100.00
2023-02-13T05:13:21.694Z,100.00
2023-02-13T05:15:49.929Z,100.00
2023-02-13T05:18:19.517Z,100.00
2023-02-13T05:21:07.690Z,100.00
2023-02-13T05:23:34.791Z,100.00
2023-02-13T05:26:02.861Z,100.00
2023-02-13T05:28:44.829Z,100.00
2023-02-13T05:31:13.126Z,100.00
2023-02-13T05:33:42.614Z,100.00
2023-02-13T05:36:10.805Z,100.00
2023-02-13T05:38:38.877Z,100.00
2023-02-13T05:41:06.900Z,100.00
2023-02-13T05:43:35.058Z,100.00
2023-02-13T05:46:04.709Z,100.00
2023-02-13T05:48:33.459Z,100.00
2023-02-13T05:51:03.003Z,100.00
2023-02-13T05:53:31.145Z,100.00
2023-02-13T05:55:59.252Z,100.00
2023-02-13T05:58:27.370Z,100.00
2023-02-13T06:00:57.773Z,100.00
2023-02-13T06:03:26.389Z,100.00
2023-02-13T06:05:55.250Z,100.00
2023-02-13T06:08:25.141Z,100.00
2023-02-13T06:10:53.232Z,100.00
2023-02-13T06:13:21.305Z,100.00
2023-02-13T06:15:50.840Z,100.00
2023-02-13T06:18:19.055Z,100.00
2023-02-13T06:20:47.191Z,100.00
2023-02-13T06:23:15.609Z,100.00
2023-02-13T06:25:45.105Z,100.00
2023-02-13T06:28:13.189Z,100.00
2023-02-13T06:30:41.341Z,100.00
2023-02-13T06:33:09.690Z,100.00
2023-02-13T06:35:37.739Z,100.00
2023-02-13T06:38:05.824Z,100.00
2023-02-13T06:40:33.870Z,100.00
2023-02-13T06:43:03.320Z,100.00
2023-02-13T06:45:31.344Z,100.00
2023-02-13T06:47:59.399Z,99.16
2023-02-13T06:50:27.708Z,100.00
2023-02-13T06:52:55.822Z,100.00
2023-02-13T06:55:23.994Z,100.00
2023-02-13T06:57:52.030Z,100.00
2023-02-13T07:00:22.615Z,100.00
2023-02-13T07:02:50.770Z,100.00
2023-02-13T07:05:19.047Z,100.00
2023-02-13T07:07:47.161Z,100.00
2023-02-13T07:10:16.078Z,100.00
2023-02-13T07:12:47.311Z,100.00
2023-02-13T07:15:17.415Z,100.00
2023-02-13T07:17:46.795Z,100.00
2023-02-13T07:20:15.413Z,100.00
2023-02-13T07:22:43.437Z,100.00
2023-02-13T07:25:11.492Z,100.00
2023-02-13T07:27:40.639Z,100.00
2023-02-13T07:30:10.534Z,100.00
2023-02-13T07:32:38.641Z,100.00
2023-02-13T07:35:08.456Z,100.00
2023-02-13T07:37:36.545Z,100.00
2023-02-13T07:40:06.583Z,100.00
2023-02-13T07:42:34.937Z,100.00
2023-02-13T07:45:05.734Z,100.00
2023-02-13T07:47:34.912Z,99.97
2023-02-13T07:50:03.161Z,100.00
2023-02-13T07:52:32.658Z,100.00
2023-02-13T07:55:00.789Z,100.00
2023-02-13T07:57:28.804Z,100.00
2023-02-13T07:59:56.891Z,100.00
2023-02-13T08:02:25.050Z,100.00
2023-02-13T08:04:53.155Z,100.00
2023-02-13T08:07:21.293Z,100.00
2023-02-13T08:10:08.492Z,99.75
2023-02-13T08:12:37.829Z,95.99
2023-02-13T08:15:06.821Z,97.21
2023-02-13T08:17:34.910Z,97.55
2023-02-13T08:20:03.103Z,98.56
2023-02-13T08:22:31.409Z,97.71
2023-02-13T08:25:00.827Z,96.42
2023-02-13T08:27:30.251Z,95.26
2023-02-13T08:29:59.149Z,94.56
2023-02-13T08:32:27.395Z,93.07
2023-02-13T08:34:55.523Z,92.51
2023-02-13T08:37:23.851Z,91.70
2023-02-13T08:39:51.973Z,92.81
2023-02-13T08:42:21.411Z,95.91
2023-02-13T08:44:49.694Z,96.55
2023-02-13T08:47:17.750Z,95.87
2023-02-13T08:49:45.910Z,96.24
2023-02-13T08:52:14.003Z,95.40
2023-02-13T08:54:42.241Z,94.47
2023-02-13T08:57:10.304Z,96.14
2023-02-13T08:59:39.740Z,97.14
2023-02-13T09:02:07.921Z,95.48
2023-02-13T09:04:36.019Z,96.05
2023-02-13T09:07:04.066Z,95.53
2023-02-13T09:09:32.113Z,95.73
2023-02-13T09:12:01.137Z,96.22
2023-02-13T09:14:29.202Z,96.20
2023-02-13T09:16:58.635Z,95.53
2023-02-13T09:19:26.720Z,93.33
2023-02-13T09:21:54.773Z,92.51
2023-02-13T09:24:22.773Z,93.55
2023-02-13T09:26:50.870Z,91.01
2023-02-13T09:29:19.076Z,90.73
2023-02-13T09:31:47.264Z,90.58
2023-02-13T09:34:16.791Z,91.76
2023-02-13T09:36:44.898Z,92.58
2023-02-13T09:39:12.987Z,89.23
2023-02-13T09:41:44.004Z,90.60
2023-02-13T09:44:32.099Z,91.69
2023-02-13T09:47:02.042Z,93.30
2023-02-13T09:49:33.880Z,92.23
2023-02-13T09:52:02.673Z,92.08
2023-02-13T09:54:33.998Z,91.83
2023-02-13T09:57:08.967Z,92.04
2023-02-13T09:59:46.485Z,92.83
2023-02-13T10:02:29.785Z,93.13
2023-02-13T10:05:11.137Z,90.13
2023-02-13T10:07:46.852Z,90.56
2023-02-13T10:10:24.456Z,91.14
2023-02-13T10:13:01.947Z,92.87
2023-02-13T10:15:36.988Z,95.60
2023-02-13T10:18:07.021Z,94.60
2023-02-13T10:20:40.990Z,94.17
2023-02-13T10:23:20.817Z,94.57
2023-02-13T10:25:56.087Z,94.87
2023-02-13T10:28:32.200Z,93.96
2023-02-13T10:31:06.592Z,93.81
2023-02-13T10:33:42.233Z,92.96
2023-02-13T10:36:19.779Z,93.29
2023-02-13T10:38:57.956Z,93.39
2023-02-13T10:41:31.890Z,89.93
2023-02-13T10:44:25.081Z,91.64
2023-02-13T10:47:03.768Z,92.71
2023-02-13T10:49:50.362Z,91.79
2023-02-13T10:52:33.104Z,90.30
2023-02-13T10:55:19.467Z,90.43
2023-02-13T10:58:05.890Z,89.92
2023-02-13T11:00:40.410Z,90.76
2023-02-13T11:03:19.857Z,89.60
2023-02-13T11:05:48.192Z,89.36
2023-02-13T11:08:22.348Z,88.24
2023-02-13T11:10:50.655Z,88.52
2023-02-13T11:13:21.231Z,89.31
2023-02-13T11:16:00.880Z,89.54
2023-02-13T11:18:31.420Z,88.77
2023-02-13T11:21:08.996Z,88.96
2023-02-13T11:23:45.628Z,87.38
2023-02-13T11:26:22.233Z,88.14
2023-02-13T11:28:55.255Z,87.72
2023-02-13T11:31:27.926Z,86.51
2023-02-13T11:33:58.960Z,88.48
2023-02-13T11:36:30.333Z,90.57
2023-02-13T11:39:01.965Z,90.46
2023-02-13T11:41:31.498Z,90.86
2023-02-13T11:44:02.412Z,87.59
2023-02-13T11:46:32.421Z,91.06
2023-02-13T11:49:03.146Z,91.29
2023-02-13T11:51:44.139Z,91.47
2023-02-13T11:54:28.954Z,92.55
2023-02-13T11:57:04.707Z,90.95
2023-02-13T11:59:40.296Z,93.42
2023-02-13T12:02:17.944Z,91.33
2023-02-13T12:04:46.936Z,92.43
2023-02-13T12:07:20.153Z,93.95
2023-02-13T12:09:54.177Z,92.99
2023-02-13T12:12:28.957Z,92.24
2023-02-13T12:14:58.382Z,92.04
2023-02-13T12:17:32.469Z,91.88
2023-02-13T12:20:02.357Z,90.60
2023-02-13T12:22:43.461Z,92.82
2023-02-13T12:25:26.978Z,93.11
2023-02-13T12:28:16.474Z,90.96
2023-02-13T12:31:03.448Z,92.17
2023-02-13T12:33:45.281Z,89.88
2023-02-13T12:36:18.188Z,86.10
2023-02-13T12:38:59.629Z,87.34
2023-02-13T12:41:38.420Z,90.36
2023-02-13T12:44:23.482Z,90.12
2023-02-13T12:47:03.158Z,88.32
2023-02-13T12:49:44.567Z,89.36
2023-02-13T12:52:33.303Z,89.70
2023-02-13T12:55:17.826Z,89.03
2023-02-13T12:58:00.802Z,90.98
2023-02-13T13:00:41.936Z,89.56
2023-02-13T13:03:31.950Z,91.02
2023-02-13T13:06:19.812Z,87.79
2023-02-13T13:09:07.640Z,90.66
2023-02-13T13:11:49.536Z,90.00
2023-02-13T13:14:26.865Z,90.48
2023-02-13T13:17:02.804Z,88.48
2023-02-13T13:19:41.682Z,90.61
2023-02-13T13:22:13.547Z,92.26
2023-02-13T13:24:57.914Z,92.06
2023-02-13T13:27:29.590Z,92.72
2023-02-13T13:30:02.640Z,90.98
2023-02-13T13:32:32.051Z,91.55
2023-02-13T13:35:01.100Z,92.25
2023-02-13T13:37:36.478Z,93.40
2023-02-13T13:40:23.014Z,92.35
2023-02-13T13:42:54.788Z,92.22
2023-02-13T13:45:38.316Z,91.12
2023-02-13T13:48:38.267Z,92.05
2023-02-13T13:51:08.355Z,91.54
2023-02-13T13:53:38.485Z,91.74
2023-02-13T13:56:09.791Z,92.96
2023-02-13T13:58:41.173Z,93.86
2023-02-13T14:01:37.509Z,93.04
2023-02-13T14:04:41.770Z,93.53
2023-02-13T14:07:22.945Z,95.29
2023-02-13T14:09:51.120Z,93.61
2023-02-13T14:12:37.872Z,93.55
2023-02-13T14:15:06.628Z,93.88
2023-02-13T14:17:57.917Z,93.44
2023-02-13T14:20:37.087Z,92.84
2023-02-13T14:23:15.767Z,92.53
2023-02-13T14:25:44.216Z,93.82
2023-02-13T14:28:22.045Z,94.59
2023-02-13T14:30:51.400Z,95.08
2023-02-13T14:33:31.216Z,95.80
2023-02-13T14:36:05.661Z,96.01
2023-02-13T14:38:35.555Z,93.78
2023-02-13T14:41:04.198Z,95.69
2023-02-13T14:43:49.903Z,97.13
2023-02-13T14:46:26.914Z,97.97
2023-02-13T14:49:03.784Z,97.78
2023-02-13T14:51:37.271Z,96.73
2023-02-13T14:54:10.935Z,96.84
2023-02-13T14:56:40.373Z,96.44
2023-02-13T14:59:15.480Z,97.71
2023-02-13T15:01:51.195Z,98.94
2023-02-13T15:04:27.385Z,99.18
2023-02-13T15:06:56.990Z,99.89
2023-02-13T15:09:32.962Z,98.55
2023-02-13T15:12:01.793Z,100.00
2023-02-13T15:14:34.864Z,100.00
2023-02-13T15:17:17.007Z,100.00
2023-02-13T15:19:50.220Z,98.91
2023-02-13T15:22:21.396Z,98.76
2023-02-13T15:24:51.077Z,95.71
2023-02-13T15:27:26.447Z,95.32
2023-02-13T15:29:56.429Z,95.09
2023-02-13T15:32:30.048Z,97.88
2023-02-13T15:34:59.716Z,95.55
2023-02-13T15:37:30.941Z,95.54
2023-02-13T15:40:17.858Z,94.47
2023-02-13T15:42:46.658Z,94.61
2023-02-13T15:45:17.634Z,93.63
2023-02-13T15:47:46.624Z,94.18
2023-02-13T15:50:23.247Z,95.22
2023-02-13T15:52:52.962Z,92.15
2023-02-13T15:55:23.984Z,91.30
2023-02-13T15:57:53.717Z,90.10
2023-02-13T16:00:26.302Z,89.39
2023-02-13T16:02:56.146Z,91.58
2023-02-13T16:05:39.519Z,90.64
2023-02-13T16:08:28.445Z,93.72
2023-02-13T16:11:26.209Z,93.21
2023-02-13T16:14:06.413Z,94.38
2023-02-13T16:16:37.900Z,92.60
2023-02-13T16:19:06.265Z,92.24
2023-02-13T16:21:51.911Z,91.13
2023-02-13T16:24:22.356Z,89.74
2023-02-13T16:26:50.952Z,91.84
2023-02-13T16:29:22.137Z,89.60
2023-02-13T16:31:51.741Z,89.45
2023-02-13T16:34:27.201Z,88.18
2023-02-13T16:36:58.102Z,87.47
2023-02-13T16:39:30.206Z,88.49
2023-02-13T16:41:59.137Z,87.79
2023-02-13T16:44:30.101Z,90.14
2023-02-13T16:47:01.607Z,90.13
2023-02-13T16:49:31.915Z,89.11
2023-02-13T16:52:11.525Z,91.11
2023-02-13T16:54:50.072Z,92.11
2023-02-13T16:57:22.194Z,95.77
2023-02-13T17:00:02.686Z,94.55
2023-02-13T17:02:33.006Z,93.12
2023-02-13T17:05:17.357Z,93.97
2023-02-13T17:07:50.571Z,93.87
2023-02-13T17:10:26.367Z,93.14
2023-02-13T17:12:56.434Z,93.76
2023-02-13T17:15:26.773Z,92.47
2023-02-13T17:17:55.134Z,92.45
2023-02-13T17:20:27.047Z,92.12
2023-02-13T17:22:58.083Z,93.18
2023-02-13T17:25:28.147Z,93.02
2023-02-13T17:27:58.054Z,90.66
2023-02-13T17:30:28.325Z,92.84
2023-02-13T17:32:59.859Z,93.95
2023-02-13T17:35:28.230Z,91.60
2023-02-13T17:37:58.180Z,92.97
2023-02-13T17:40:29.766Z,92.28
2023-02-13T17:42:59.632Z,92.52
2023-02-13T17:45:30.298Z,92.70
2023-02-13T17:47:58.867Z,93.53
2023-02-13T17:50:28.223Z,93.78
2023-02-13T17:52:58.654Z,94.23
2023-02-13T17:55:29.487Z,93.60
2023-02-13T17:57:58.968Z,93.11
2023-02-13T18:00:29.447Z,93.57
2023-02-13T18:02:59.282Z,92.07
2023-02-13T18:05:28.221Z,92.72
2023-02-13T18:07:57.684Z,93.51
2023-02-13T18:10:28.101Z,95.07
2023-02-13T18:12:58.456Z,95.06
2023-02-13T18:15:26.604Z,95.39
2023-02-13T18:17:54.634Z,96.04
2023-02-13T18:20:23.207Z,95.26
2023-02-13T18:22:51.590Z,94.75
2023-02-13T18:25:22.009Z,94.50
2023-02-13T18:27:50.621Z,95.57
2023-02-13T18:30:21.557Z,93.99
2023-02-13T18:32:52.442Z,93.22
2023-02-13T18:35:21.214Z,91.49
2023-02-13T18:37:49.633Z,90.48
2023-02-13T18:40:18.285Z,91.26
2023-02-13T18:42:48.741Z,92.07
2023-02-13T18:45:18.430Z,91.14
2023-02-13T18:47:46.501Z,91.29
2023-02-13T18:50:14.754Z,92.56
2023-02-13T18:52:42.916Z,90.12
2023-02-13T18:55:11.043Z,92.25
2023-02-13T18:57:43.443Z,91.46
2023-02-13T19:00:15.008Z,92.42
2023-02-13T19:02:43.165Z,91.03
2023-02-13T19:05:11.220Z,89.43
2023-02-13T19:07:39.404Z,90.09
2023-02-13T19:10:08.237Z,89.04
2023-02-13T19:12:36.391Z,89.54
2023-02-13T19:15:05.094Z,88.82
2023-02-13T19:17:35.438Z,88.91
2023-02-13T19:20:03.491Z,91.80
2023-02-13T19:22:31.561Z,91.91
2023-02-13T19:24:59.589Z,91.20
2023-02-13T19:27:27.703Z,90.01
2023-02-13T19:29:55.819Z,91.38
2023-02-13T19:32:23.960Z,90.98
2023-02-13T19:34:53.461Z,91.07
2023-02-13T19:37:21.511Z,91.06
2023-02-13T19:39:49.548Z,92.16
2023-02-13T19:42:17.777Z,91.65
2023-02-13T19:44:45.814Z,90.53
2023-02-13T19:47:13.848Z,90.72
2023-02-13T19:49:41.863Z,88.04
2023-02-13T19:52:11.374Z,88.91
2023-02-13T19:54:40.170Z,88.39
2023-02-13T19:57:08.398Z,87.48
2023-02-13T19:59:36.439Z,88.23
2023-02-13T20:02:04.736Z,86.95
2023-02-13T20:04:36.795Z,86.98
2023-02-13T20:07:05.788Z,85.53
2023-02-13T20:09:37.759Z,85.81
2023-02-13T20:12:06.040Z,85.09
2023-02-13T20:14:34.741Z,85.53
2023-02-13T20:17:03.082Z,86.98
2023-02-13T20:19:31.141Z,88.25
2023-02-13T20:22:00.446Z,86.34
2023-02-13T20:24:28.559Z,86.84
2023-02-13T20:26:58.968Z,86.27
2023-02-13T20:29:27.055Z,87.76
2023-02-13T20:31:55.255Z,88.35
2023-02-13T20:34:23.458Z,88.73
2023-02-13T20:36:51.497Z,88.10
2023-02-13T20:39:21.370Z,86.40
2023-02-13T20:41:50.549Z,86.95
2023-02-13T20:44:21.034Z,88.63
2023-02-13T20:46:49.198Z,89.37
2023-02-13T20:49:21.834Z,88.92
2023-02-13T20:51:50.164Z,88.98
2023-02-13T20:54:18.266Z,88.32
2023-02-13T20:56:47.654Z,89.28
2023-02-13T20:59:15.748Z,88.59
2023-02-13T21:01:46.790Z,88.48
2023-02-13T21:04:19.238Z,88.57
2023-02-13T21:06:48.112Z,87.19
2023-02-13T21:09:16.764Z,87.93
2023-02-13T21:11:45.982Z,87.38
2023-02-13T21:14:15.100Z,87.95
2023-02-13T21:16:43.544Z,88.18
2023-02-13T21:19:16.071Z,88.93
2023-02-13T21:21:45.086Z,89.77
2023-02-13T21:24:15.598Z,89.39
2023-02-13T21:26:44.450Z,89.80
2023-02-13T21:29:12.756Z,89.46
2023-02-13T21:31:47.445Z,89.99
2023-02-13T21:34:18.164Z,89.54
2023-02-13T21:36:47.209Z,91.05
2023-02-13T21:39:16.074Z,90.44
2023-02-13T21:41:45.635Z,90.90
2023-02-13T21:44:14.704Z,90.10
2023-02-13T21:46:44.200Z,88.72
2023-02-13T21:49:14.237Z,87.73
2023-02-13T21:51:44.242Z,89.27
2023-02-13T21:54:12.968Z,88.04
2023-02-13T21:56:43.599Z,86.13
2023-02-13T21:59:16.309Z,85.79
2023-02-13T22:01:50.145Z,85.43
2023-02-13T22:04:19.040Z,84.76
2023-02-13T22:06:51.267Z,85.81
2023-02-13T22:09:21.766Z,84.86
2023-02-13T22:11:51.919Z,87.02
2023-02-13T22:14:21.677Z,86.13
2023-02-13T22:16:51.904Z,87.11
2023-02-13T22:19:20.668Z,86.79
2023-02-13T22:21:50.504Z,86.93
2023-02-13T22:24:18.545Z,88.29
2023-02-13T22:26:46.701Z,87.85
2023-02-13T22:29:17.940Z,87.77
2023-02-13T22:31:46.209Z,90.44
2023-02-13T22:34:14.790Z,91.71
2023-02-13T22:36:43.168Z,92.16
2023-02-13T22:39:13.555Z,91.52
2023-02-13T22:41:44.578Z,92.41
2023-02-13T22:44:12.742Z,92.56
2023-02-13T22:46:40.949Z,92.00
2023-02-13T22:49:09.098Z,91.24
2023-02-13T22:51:37.560Z,90.79
2023-02-13T22:54:06.675Z,91.76
2023-02-13T22:56:36.243Z,91.25
2023-02-13T22:59:04.392Z,90.77
2023-02-13T23:01:32.416Z,92.06
2023-02-13T23:04:00.821Z,91.29
2023-02-13T23:06:28.995Z,91.29
2023-02-13T23:08:57.941Z,92.32
2023-02-13T23:11:46.129Z,92.63
2023-02-13T23:14:16.775Z,93.49
2023-02-13T23:17:03.085Z,92.85
2023-02-13T23:19:31.468Z,92.36
2023-02-13T23:21:59.797Z,92.35
2023-02-13T23:24:28.142Z,92.73
2023-02-13T23:26:56.228Z,92.90
2023-02-13T23:29:25.658Z,91.42
2023-02-13T23:31:54.183Z,92.17
2023-02-13T23:34:22.854Z,92.20
2023-02-13T23:36:53.391Z,92.10
2023-02-13T23:39:21.699Z,94.67
2023-02-13T23:41:49.736Z,92.39
2023-02-13T23:44:17.924Z,93.10
2023-02-13T23:46:47.466Z,95.04
2023-02-13T23:49:15.610Z,94.98
2023-02-13T23:51:43.691Z,93.52
2023-02-13T23:54:15.656Z,94.01
2023-02-13T23:56:43.885Z,93.84
2023-02-13T23:59:12.100Z,93.38
